createdAt,value
2023-05-19T00:02:05.626Z,37.44
2023-05-19T00:04:33.613Z,37.72
2023-05-19T00:07:01.968Z,37.82
2023-05-19T00:09:28.791Z,37.67
2023-05-19T00:11:56.773Z,37.53
2023-05-19T00:14:23.675Z,37.59
2023-05-19T00:16:50.583Z,37.52
2023-05-19T00:19:17.750Z,37.56
2023-05-19T00:21:44.351Z,37.69
2023-05-19T00:24:11.057Z,37.50
2023-05-19T00:26:37.641Z,37.60
2023-05-19T00:29:04.239Z,37.71
2023-05-19T00:31:31.777Z,37.51
2023-05-19T00:33:58.392Z,37.63
2023-05-19T00:36:25.096Z,37.46
2023-05-19T00:38:51.945Z,37.64
2023-05-19T00:41:18.567Z,37.47
2023-05-19T00:43:45.154Z,37.55
2023-05-19T00:46:11.800Z,37.65
2023-05-19T00:48:38.418Z,37.49
2023-05-19T00:51:06.542Z,37.47
2023-05-19T00:53:34.152Z,37.44
2023-05-19T00:56:02.307Z,37.44
2023-05-19T00:58:31.198Z,37.34
2023-05-19T01:01:04.077Z,37.44
2023-05-19T01:03:32.887Z,37.53
2023-05-19T01:06:04.988Z,37.38
2023-05-19T01:08:38.935Z,37.27
2023-05-19T01:11:06.942Z,37.33
2023-05-19T01:13:35.518Z,37.40
2023-05-19T01:16:14.109Z,37.40
2023-05-19T01:18:46.532Z,37.33
2023-05-19T01:21:25.114Z,37.57
2023-05-19T01:23:56.977Z,37.27
2023-05-19T01:26:42.729Z,37.35
2023-05-19T01:29:28.509Z,36.94
2023-05-19T01:32:00.334Z,37.45
2023-05-19T01:34:27.747Z,37.33
2023-05-19T01:36:55.794Z,37.30
2023-05-19T01:39:23.779Z,37.19
2023-05-19T01:41:51.711Z,37.42
2023-05-19T01:44:19.105Z,37.29
2023-05-19T01:46:45.810Z,37.33
2023-05-19T01:49:13.731Z,37.33
2023-05-19T01:51:41.164Z,37.20
2023-05-19T01:54:07.861Z,37.38
2023-05-19T01:56:46.243Z,37.22
2023-05-19T01:59:33.170Z,37.25
2023-05-19T02:02:06.065Z,37.24
2023-05-19T02:04:50.993Z,37.39
2023-05-19T02:07:46.711Z,37.18
2023-05-19T02:10:22.868Z,37.21
2023-05-19T02:12:54.223Z,37.25
2023-05-19T02:15:36.388Z,37.11
2023-05-19T02:18:04.719Z,37.16
2023-05-19T02:20:31.825Z,37.16
2023-05-19T02:22:58.506Z,37.22
2023-05-19T02:25:25.122Z,37.19
2023-05-19T02:27:52.746Z,37.24
2023-05-19T02:30:19.265Z,37.28
2023-05-19T02:32:48.654Z,37.29
2023-05-19T02:35:15.665Z,37.23
2023-05-19T02:37:42.248Z,37.30
2023-05-19T02:40:09.353Z,37.24
2023-05-19T02:42:35.888Z,37.23
2023-05-19T02:45:02.436Z,36.89
2023-05-19T02:47:29.017Z,37.12
2023-05-19T02:49:55.665Z,37.20
2023-05-19T02:52:22.292Z,37.15
2023-05-19T02:54:48.879Z,37.21
2023-05-19T02:57:15.621Z,37.11
2023-05-19T02:59:42.866Z,36.96
2023-05-19T03:02:09.602Z,37.25
2023-05-19T03:04:41.745Z,37.13
2023-05-19T03:07:16.341Z,37.15
2023-05-19T03:09:43.095Z,37.20
2023-05-19T03:12:09.913Z,37.10
2023-05-19T03:14:39.329Z,37.15
2023-05-19T03:17:08.062Z,37.19
2023-05-19T03:19:34.805Z,37.04
2023-05-19T03:22:01.403Z,37.14
2023-05-19T03:24:28.018Z,37.12
2023-05-19T03:26:54.594Z,37.08
2023-05-19T03:29:21.558Z,37.05
2023-05-19T03:31:48.149Z,37.07
2023-05-19T03:34:14.887Z,37.16
2023-05-19T03:36:41.528Z,37.02
2023-05-19T03:39:08.110Z,37.18
2023-05-19T03:41:34.943Z,37.14
2023-05-19T03:44:01.612Z,37.04
2023-05-19T03:46:28.460Z,37.07
2023-05-19T03:48:55.074Z,37.02
2023-05-19T03:51:21.633Z,37.13
2023-05-19T03:53:48.805Z,37.26
2023-05-19T03:56:18.084Z,37.28
2023-05-19T03:58:45.129Z,37.30
2023-05-19T04:01:11.851Z,37.27
2023-05-19T04:03:38.496Z,37.42
2023-05-19T04:06:05.274Z,37.29
2023-05-19T04:08:32.163Z,37.23
2023-05-19T04:10:58.873Z,37.20
2023-05-19T04:13:25.488Z,37.31
2023-05-19T04:15:52.235Z,37.31
2023-05-19T04:18:19.051Z,37.24
2023-05-19T04:20:45.558Z,37.16
2023-05-19T04:23:12.111Z,37.13
2023-05-19T04:25:40.811Z,37.30
2023-05-19T04:28:07.721Z,37.20
2023-05-19T04:30:34.673Z,37.40
2023-05-19T04:33:03.197Z,37.32
2023-05-19T04:35:29.961Z,37.39
2023-05-19T04:37:56.979Z,37.48
2023-05-19T04:40:23.910Z,37.40
2023-05-19T04:42:54.192Z,37.44
2023-05-19T04:45:20.771Z,37.49
2023-05-19T04:47:48.291Z,37.48
2023-05-19T04:50:16.377Z,37.36
2023-05-19T04:52:45.638Z,37.57
2023-05-19T04:55:13.201Z,37.59
2023-05-19T04:57:40.238Z,37.59
2023-05-19T05:00:09.121Z,37.59
2023-05-19T05:02:36.232Z,37.77
2023-05-19T05:05:02.957Z,37.87
2023-05-19T05:07:31.641Z,37.73
2023-05-19T05:09:58.971Z,37.79
2023-05-19T05:12:25.999Z,37.87
2023-05-19T05:14:52.797Z,37.88
2023-05-19T05:17:20.574Z,37.81
2023-05-19T05:19:48.562Z,37.88
2023-05-19T05:22:15.862Z,38.01
2023-05-19T05:24:42.721Z,37.97
2023-05-19T05:27:10.237Z,37.97
2023-05-19T05:29:37.001Z,37.99
2023-05-19T05:32:03.738Z,38.07
2023-05-19T05:34:30.578Z,37.96
2023-05-19T05:36:57.132Z,37.85
2023-05-19T05:39:23.744Z,38.22
2023-05-19T05:41:50.376Z,37.87
2023-05-19T05:44:16.938Z,37.99
2023-05-19T05:46:43.797Z,38.19
2023-05-19T05:49:12.461Z,38.17
2023-05-19T05:51:39.779Z,38.20
2023-05-19T05:54:07.375Z,38.25
2023-05-19T05:56:34.437Z,38.23
2023-05-19T05:59:02.134Z,38.36
2023-05-19T06:01:30.480Z,38.17
2023-05-19T06:03:57.013Z,38.07
2023-05-19T06:06:23.604Z,38.14
2023-05-19T06:08:50.122Z,38.16
2023-05-19T06:11:16.901Z,38.25
2023-05-19T06:13:43.471Z,38.25
2023-05-19T06:16:10.189Z,38.21
2023-05-19T06:18:36.932Z,38.27
2023-05-19T06:21:03.840Z,38.11
2023-05-19T06:23:31.095Z,38.08
2023-05-19T06:25:57.798Z,38.04
2023-05-19T06:28:24.384Z,38.03
2023-05-19T06:30:50.997Z,38.10
2023-05-19T06:33:17.586Z,38.04
2023-05-19T06:35:44.291Z,38.06
2023-05-19T06:38:10.958Z,38.13
2023-05-19T06:40:37.755Z,38.09
2023-05-19T06:43:04.921Z,38.16
2023-05-19T06:45:31.701Z,38.05
2023-05-19T06:47:58.579Z,38.17
2023-05-19T06:50:25.684Z,38.17
2023-05-19T06:52:52.482Z,38.21
2023-05-19T06:55:19.473Z,38.17
2023-05-19T06:57:46.067Z,38.25
2023-05-19T07:00:15.873Z,38.08
2023-05-19T07:02:44.662Z,38.17
2023-05-19T07:05:11.233Z,38.16
2023-05-19T07:07:37.913Z,38.13
2023-05-19T07:10:05.077Z,38.14
2023-05-19T07:12:31.633Z,38.15
2023-05-19T07:14:58.261Z,38.11
2023-05-19T07:17:24.968Z,38.22
2023-05-19T07:19:51.572Z,38.17
2023-05-19T07:22:18.189Z,38.22
2023-05-19T07:24:45.027Z,38.22
2023-05-19T07:27:11.720Z,38.27
2023-05-19T07:29:38.353Z,38.28
2023-05-19T07:32:05.410Z,38.30
2023-05-19T07:34:32.046Z,38.43
2023-05-19T07:36:58.667Z,38.38
2023-05-19T07:39:27.858Z,38.36
2023-05-19T07:41:55.782Z,38.44
2023-05-19T07:44:22.348Z,38.68
2023-05-19T07:46:49.027Z,38.47
2023-05-19T07:49:15.625Z,38.38
2023-05-19T07:51:42.299Z,38.24
2023-05-19T07:54:09.303Z,38.44
2023-05-19T07:56:35.986Z,38.46
2023-05-19T07:59:03.583Z,38.50
2023-05-19T08:01:32.213Z,38.54
2023-05-19T08:03:58.935Z,38.52
2023-05-19T08:06:25.927Z,38.42
2023-05-19T08:08:54.212Z,38.52
2023-05-19T08:11:21.598Z,38.57
2023-05-19T08:13:49.266Z,38.62
2023-05-19T08:16:16.416Z,42.15
2023-05-19T08:18:43.375Z,43.87
2023-05-19T08:21:10.001Z,42.23
2023-05-19T08:23:37.511Z,43.09
2023-05-19T08:26:04.529Z,42.35
2023-05-19T08:28:31.443Z,42.45
2023-05-19T08:30:58.146Z,42.69
2023-05-19T08:33:24.824Z,42.89
2023-05-19T08:35:51.370Z,42.97
2023-05-19T08:38:17.917Z,42.72
2023-05-19T08:40:47.569Z,42.84
2023-05-19T08:43:15.562Z,42.76
2023-05-19T08:45:48.307Z,42.70
2023-05-19T08:48:17.991Z,42.58
2023-05-19T08:50:53.086Z,42.57
2023-05-19T08:53:33.795Z,42.50
2023-05-19T08:56:24.225Z,42.36
2023-05-19T08:58:51.593Z,42.23
2023-05-19T09:01:19.520Z,42.13
2023-05-19T09:03:49.578Z,42.05
2023-05-19T09:06:16.437Z,41.98
2023-05-19T09:08:43.835Z,41.93
2023-05-19T09:11:10.926Z,42.16
2023-05-19T09:13:37.818Z,42.18
2023-05-19T09:16:04.722Z,42.00
2023-05-19T09:18:31.806Z,42.03
2023-05-19T09:21:00.258Z,41.66
2023-05-19T09:23:29.613Z,41.68
2023-05-19T09:25:57.617Z,41.74
2023-05-19T09:28:24.122Z,41.61
2023-05-19T09:30:59.781Z,41.38
2023-05-19T09:33:26.395Z,41.21
2023-05-19T09:35:55.242Z,41.12
2023-05-19T09:38:23.744Z,40.96
2023-05-19T09:40:51.502Z,40.78
2023-05-19T09:43:18.188Z,41.01
2023-05-19T09:45:44.833Z,41.20
2023-05-19T09:48:11.413Z,40.80
2023-05-19T09:50:38.224Z,40.69
2023-05-19T09:53:05.048Z,40.58
2023-05-19T09:55:33.478Z,40.73
2023-05-19T09:58:03.787Z,40.64
2023-05-19T10:00:32.870Z,40.41
2023-05-19T10:03:00.529Z,40.25
2023-05-19T10:05:27.600Z,40.36
2023-05-19T10:07:55.137Z,40.30
2023-05-19T10:10:22.852Z,40.11
2023-05-19T10:12:49.735Z,40.08
2023-05-19T10:15:18.924Z,39.88
2023-05-19T10:17:46.560Z,40.00
2023-05-19T10:20:15.470Z,39.83
2023-05-19T10:22:44.236Z,39.71
2023-05-19T10:25:11.689Z,39.78
2023-05-19T10:27:44.553Z,39.93
2023-05-19T10:30:16.494Z,39.79
2023-05-19T10:32:45.004Z,39.71
2023-05-19T10:35:47.198Z,39.63
2023-05-19T10:38:22.997Z,39.62
2023-05-19T10:41:11.732Z,39.79
2023-05-19T10:44:04.581Z,39.61
2023-05-19T10:46:31.795Z,39.65
2023-05-19T10:48:59.328Z,39.57
2023-05-19T10:51:32.142Z,39.50
2023-05-19T10:54:02.727Z,39.26
2023-05-19T10:56:33.005Z,39.27
2023-05-19T10:58:59.846Z,39.36
2023-05-19T11:01:34.571Z,39.19
2023-05-19T11:04:10.916Z,39.16
2023-05-19T11:06:38.780Z,39.40
2023-05-19T11:09:16.742Z,39.25
2023-05-19T11:11:53.984Z,39.34
2023-05-19T11:14:23.137Z,39.27
2023-05-19T11:16:51.762Z,39.37
2023-05-19T11:19:33.149Z,39.06
2023-05-19T11:22:11.438Z,39.32
2023-05-19T11:24:42.028Z,39.12
2023-05-19T11:27:19.894Z,39.21
2023-05-19T11:29:48.410Z,39.03
2023-05-19T11:32:16.105Z,39.11
2023-05-19T11:34:44.800Z,39.48
2023-05-19T11:37:12.299Z,39.37
2023-05-19T11:39:39.679Z,39.43
2023-05-19T11:42:06.674Z,39.55
2023-05-19T11:44:33.198Z,39.32
2023-05-19T11:47:00.259Z,39.27
2023-05-19T11:49:29.407Z,39.26
2023-05-19T11:51:56.336Z,39.11
2023-05-19T11:54:34.907Z,39.37
2023-05-19T11:57:03.439Z,39.38
2023-05-19T11:59:33.451Z,39.25
2023-05-19T12:02:24.941Z,39.18
2023-05-19T12:04:52.340Z,38.99
2023-05-19T12:07:23.060Z,39.06
2023-05-19T12:09:51.722Z,39.14
2023-05-19T12:12:19.801Z,39.03
2023-05-19T12:14:47.472Z,39.17
2023-05-19T12:17:24.116Z,39.24
2023-05-19T12:19:51.336Z,39.05
2023-05-19T12:22:19.186Z,39.03
2023-05-19T12:24:47.290Z,39.16
2023-05-19T12:27:19.630Z,38.97
2023-05-19T12:29:53.904Z,38.88
2023-05-19T12:32:27.852Z,38.79
2023-05-19T12:34:58.093Z,38.80
2023-05-19T12:37:27.978Z,38.81
2023-05-19T12:39:56.294Z,38.90
2023-05-19T12:42:23.781Z,38.94
2023-05-19T12:44:52.654Z,38.95
2023-05-19T12:47:20.494Z,38.75
2023-05-19T12:49:57.997Z,38.80
2023-05-19T12:52:24.884Z,38.80
2023-05-19T12:55:08.081Z,38.90
2023-05-19T12:57:36.261Z,38.75
2023-05-19T13:00:25.757Z,38.64
2023-05-19T13:03:05.298Z,38.57
2023-05-19T13:05:34.040Z,38.71
2023-05-19T13:08:03.023Z,38.86
2023-05-19T13:10:31.276Z,38.78
2023-05-19T13:13:00.155Z,38.87
2023-05-19T13:15:34.280Z,38.88
2023-05-19T13:18:03.654Z,38.69
2023-05-19T13:20:30.529Z,38.68
2023-05-19T13:22:57.495Z,38.61
2023-05-19T13:25:24.306Z,38.60
2023-05-19T13:27:51.092Z,38.60
2023-05-19T13:30:19.320Z,38.52
2023-05-19T13:32:46.276Z,38.33
2023-05-19T13:35:14.293Z,38.40
2023-05-19T13:37:43.859Z,38.41
2023-05-19T13:40:11.606Z,38.28
2023-05-19T13:42:38.294Z,38.14
2023-05-19T13:45:05.538Z,38.11
2023-05-19T13:47:32.245Z,38.14
2023-05-19T13:49:59.060Z,38.15
2023-05-19T13:52:27.496Z,38.16
2023-05-19T13:54:56.667Z,38.11
2023-05-19T13:57:26.499Z,37.97
2023-05-19T14:00:02.686Z,37.79
2023-05-19T14:02:30.519Z,37.99
2023-05-19T14:04:57.601Z,37.87
2023-05-19T14:07:25.435Z,37.82
2023-05-19T14:09:52.575Z,37.70
2023-05-19T14:12:20.233Z,37.51
2023-05-19T14:14:50.135Z,37.67
2023-05-19T14:17:16.819Z,37.32
2023-05-19T14:19:43.389Z,37.63
2023-05-19T14:22:10.147Z,37.70
2023-05-19T14:24:37.298Z,37.85
2023-05-19T14:27:04.010Z,37.74
2023-05-19T14:29:34.069Z,37.56
2023-05-19T14:32:00.902Z,37.80
2023-05-19T14:34:27.578Z,37.81
2023-05-19T14:36:54.161Z,38.09
2023-05-19T14:39:21.099Z,37.79
2023-05-19T14:41:49.396Z,37.40
2023-05-19T14:44:16.039Z,37.54
2023-05-19T14:46:42.645Z,37.71
2023-05-19T14:49:09.357Z,37.85
2023-05-19T14:51:36.032Z,37.68
2023-05-19T14:54:02.573Z,37.88
2023-05-19T14:56:29.183Z,38.12
2023-05-19T14:58:56.479Z,37.75
2023-05-19T15:01:23.224Z,38.21
2023-05-19T15:03:49.926Z,37.97
2023-05-19T15:06:16.929Z,37.91
2023-05-19T15:08:43.586Z,38.33
2023-05-19T15:11:10.161Z,38.05
2023-05-19T15:13:36.745Z,38.08
2023-05-19T15:16:16.353Z,38.05
2023-05-19T15:18:43.743Z,38.04
2023-05-19T15:21:10.380Z,38.18
2023-05-19T15:23:36.960Z,38.37
2023-05-19T15:26:03.866Z,38.23
2023-05-19T15:28:30.559Z,38.18
2023-05-19T15:30:57.245Z,38.09
2023-05-19T15:33:24.960Z,38.12
2023-05-19T15:35:52.274Z,37.83
2023-05-19T15:38:19.522Z,37.75
2023-05-19T15:40:46.722Z,37.93
2023-05-19T15:43:13.576Z,37.70
2023-05-19T15:45:40.176Z,37.75
2023-05-19T15:48:06.995Z,37.64
2023-05-19T15:50:33.914Z,37.52
2023-05-19T15:53:00.738Z,37.39
2023-05-19T15:55:27.316Z,37.21
2023-05-19T15:57:54.014Z,37.28
2023-05-19T16:00:20.755Z,37.23
2023-05-19T16:02:47.443Z,37.20
2023-05-19T16:05:14.218Z,37.18
2023-05-19T16:07:42.184Z,37.00
2023-05-19T16:10:09.346Z,37.15
2023-05-19T16:12:36.754Z,37.08
2023-05-19T16:15:03.862Z,37.20
2023-05-19T16:17:30.684Z,36.84
2023-05-19T16:19:57.410Z,36.73
2023-05-19T16:22:24.907Z,36.69
2023-05-19T16:24:52.181Z,36.90
2023-05-19T16:27:19.093Z,36.85
2023-05-19T16:29:45.817Z,36.55
2023-05-19T16:32:13.085Z,36.66
2023-05-19T16:34:40.174Z,36.75
2023-05-19T16:37:06.876Z,36.78
2023-05-19T16:39:37.000Z,36.63
2023-05-19T16:42:06.403Z,36.68
2023-05-19T16:44:32.994Z,36.25
2023-05-19T16:46:59.577Z,36.52
2023-05-19T16:49:27.603Z,36.11
2023-05-19T16:51:54.284Z,36.36
2023-05-19T16:54:21.368Z,36.30
2023-05-19T16:56:48.008Z,36.14
2023-05-19T16:59:14.583Z,36.24
2023-05-19T17:01:41.339Z,35.94
2023-05-19T17:04:08.270Z,35.92
2023-05-19T17:06:35.098Z,35.68
2023-05-19T17:09:02.169Z,36.06
2023-05-19T17:11:28.834Z,35.92
2023-05-19T17:13:55.682Z,35.71
2023-05-19T17:16:23.496Z,35.78
2023-05-19T17:18:50.218Z,35.69
2023-05-19T17:21:17.632Z,35.84
2023-05-19T17:23:44.615Z,35.53
2023-05-19T17:26:11.523Z,35.71
2023-05-19T17:28:38.174Z,35.54
2023-05-19T17:31:15.084Z,35.62
2023-05-19T17:33:41.847Z,35.50
2023-05-19T17:36:09.132Z,35.56
2023-05-19T17:38:40.094Z,35.64
2023-05-19T17:41:10.846Z,35.51
2023-05-19T17:43:38.145Z,35.35
2023-05-19T17:46:04.957Z,35.25
2023-05-19T17:48:32.106Z,35.16
2023-05-19T17:50:59.258Z,35.04
2023-05-19T17:53:26.358Z,35.24
2023-05-19T17:55:59.496Z,35.00
2023-05-19T17:58:26.607Z,34.86
2023-05-19T18:00:54.293Z,35.20
2023-05-19T18:03:22.249Z,34.99
2023-05-19T18:05:50.339Z,34.81
2023-05-19T18:08:17.390Z,34.89
2023-05-19T18:10:44.523Z,34.67
2023-05-19T18:13:13.975Z,34.70
2023-05-19T18:15:40.771Z,34.85
2023-05-19T18:18:07.807Z,34.80
2023-05-19T18:20:34.941Z,34.75
2023-05-19T18:23:02.810Z,34.90
2023-05-19T18:25:29.436Z,34.92
2023-05-19T18:27:56.087Z,34.73
2023-05-19T18:30:23.336Z,34.81
2023-05-19T18:32:49.968Z,34.83
2023-05-19T18:35:16.874Z,34.77
2023-05-19T18:37:43.541Z,34.90
2023-05-19T18:40:10.550Z,34.75
2023-05-19T18:42:37.773Z,34.58
2023-05-19T18:45:04.896Z,34.69
2023-05-19T18:47:31.420Z,34.46
2023-05-19T18:49:58.185Z,34.77
2023-05-19T18:52:26.684Z,34.51
2023-05-19T18:54:53.594Z,34.70
2023-05-19T18:57:20.546Z,34.38
2023-05-19T18:59:47.238Z,34.71
2023-05-19T19:02:13.830Z,34.59
2023-05-19T19:04:40.371Z,34.74
2023-05-19T19:07:06.920Z,34.70
2023-05-19T19:09:33.912Z,34.55
2023-05-19T19:12:00.426Z,34.73
2023-05-19T19:14:27.113Z,34.82
2023-05-19T19:16:53.688Z,34.49
2023-05-19T19:19:20.648Z,34.87
2023-05-19T19:21:47.248Z,34.57
2023-05-19T19:24:13.834Z,34.72
2023-05-19T19:26:40.450Z,34.83
2023-05-19T19:29:06.965Z,34.86
2023-05-19T19:31:33.611Z,34.53
2023-05-19T19:34:03.630Z,34.60
2023-05-19T19:36:30.374Z,34.87
2023-05-19T19:38:56.951Z,34.50
2023-05-19T19:41:23.569Z,34.90
2023-05-19T19:43:51.031Z,34.93
2023-05-19T19:46:17.721Z,34.75
2023-05-19T19:48:44.313Z,34.66
2023-05-19T19:51:10.912Z,34.91
2023-05-19T19:53:37.474Z,34.73
2023-05-19T19:56:05.018Z,34.88
2023-05-19T19:58:31.758Z,34.81
2023-05-19T20:00:59.896Z,34.96
2023-05-19T20:03:27.022Z,34.74
2023-05-19T20:05:55.854Z,34.68
2023-05-19T20:08:23.474Z,35.00
2023-05-19T20:10:50.688Z,34.70
2023-05-19T20:13:18.375Z,35.07
2023-05-19T20:15:46.145Z,35.05
2023-05-19T20:18:13.609Z,34.96
2023-05-19T20:20:41.030Z,34.74
2023-05-19T20:23:07.791Z,35.09
2023-05-19T20:25:50.146Z,34.79
2023-05-19T20:28:25.808Z,35.21
2023-05-19T20:30:52.480Z,34.95
2023-05-19T20:33:19.033Z,35.05
2023-05-19T20:35:45.885Z,34.84
2023-05-19T20:38:12.451Z,34.98
2023-05-19T20:40:39.066Z,34.71
2023-05-19T20:43:05.737Z,34.87
2023-05-19T20:45:32.629Z,34.90
2023-05-19T20:47:59.686Z,35.07
2023-05-19T20:50:26.310Z,35.12
2023-05-19T20:52:52.854Z,35.17
2023-05-19T20:55:19.531Z,35.26
2023-05-19T20:57:46.248Z,35.29
2023-05-19T21:00:13.472Z,35.12
2023-05-19T21:02:40.135Z,35.57
2023-05-19T21:05:07.099Z,35.53
2023-05-19T21:07:33.693Z,35.75
2023-05-19T21:10:00.335Z,35.62
2023-05-19T21:12:29.056Z,35.51
2023-05-19T21:14:55.651Z,35.64
2023-05-19T21:17:22.389Z,35.53
2023-05-19T21:19:50.559Z,35.55
2023-05-19T21:22:17.572Z,35.60
2023-05-19T21:24:44.176Z,35.77
2023-05-19T21:27:10.786Z,35.78
2023-05-19T21:29:37.348Z,35.71
2023-05-19T21:32:04.178Z,35.85
2023-05-19T21:34:30.690Z,35.96
2023-05-19T21:36:57.237Z,35.67
2023-05-19T21:39:23.798Z,35.86
2023-05-19T21:41:51.387Z,35.78
2023-05-19T21:44:18.065Z,35.81
2023-05-19T21:46:44.608Z,35.79
2023-05-19T21:49:11.183Z,36.09
2023-05-19T21:51:37.796Z,35.88
2023-05-19T21:54:04.340Z,35.81
2023-05-19T21:56:31.187Z,35.84
2023-05-19T21:58:57.878Z,35.81
2023-05-19T22:01:24.582Z,36.17
2023-05-19T22:03:51.164Z,35.77
2023-05-19T22:06:17.839Z,36.22
2023-05-19T22:08:44.382Z,36.02
2023-05-19T22:11:10.958Z,36.04
2023-05-19T22:13:41.063Z,35.98
2023-05-19T22:16:08.158Z,36.29
2023-05-19T22:18:34.869Z,36.10
2023-05-19T22:21:01.979Z,35.98
2023-05-19T22:23:28.713Z,36.07
2023-05-19T22:25:55.464Z,36.15
2023-05-19T22:28:22.061Z,36.28
2023-05-19T22:30:48.580Z,36.09
2023-05-19T22:33:15.346Z,36.39
2023-05-19T22:35:41.878Z,36.37
2023-05-19T22:38:10.500Z,36.07
2023-05-19T22:40:37.476Z,36.47
2023-05-19T22:43:04.079Z,36.39
2023-05-19T22:45:31.976Z,36.24
2023-05-19T22:47:58.794Z,36.21
2023-05-19T22:50:25.775Z,36.37
2023-05-19T22:52:52.393Z,36.41
2023-05-19T22:55:19.013Z,36.36
2023-05-19T22:57:45.653Z,36.55
2023-05-19T23:00:18.428Z,36.22
2023-05-19T23:02:45.039Z,36.36
2023-05-19T23:05:11.640Z,36.64
2023-05-19T23:07:38.277Z,36.23
2023-05-19T23:10:07.339Z,36.51
2023-05-19T23:12:33.980Z,36.30
2023-05-19T23:15:00.760Z,36.36
2023-05-19T23:17:27.528Z,36.66
2023-05-19T23:19:54.124Z,36.39
2023-05-19T23:22:20.832Z,36.83
2023-05-19T23:24:47.696Z,36.50
2023-05-19T23:27:14.246Z,36.57
2023-05-19T23:29:40.802Z,36.65
2023-05-19T23:32:07.808Z,36.57
2023-05-19T23:34:34.356Z,36.63
2023-05-19T23:37:00.935Z,36.93
2023-05-19T23:39:27.611Z,36.83
2023-05-19T23:41:54.241Z,36.60
2023-05-19T23:44:20.938Z,36.78
2023-05-19T23:46:47.558Z,36.70
2023-05-19T23:49:14.608Z,36.72
2023-05-19T23:51:41.398Z,36.92
2023-05-19T23:54:07.969Z,36.86
2023-05-19T23:56:34.563Z,36.96
2023-05-19T23:59:01.190Z,36.90
